地図

経路データ

SID SEASON NUMBER BASIN SUBBASIN NAME ISO_TIME NATURE LAT LON WMO_WIND WMO_PRES WMO_AGENCY TRACK_TYPE DIST2LAND LANDFALL IFLAG USA_AGENCY USA_ATCF_ID USA_LAT USA_LON USA_RECORD USA_STATUS USA_WIND USA_PRES USA_SSHS USA_R34_NE USA_R34_SE USA_R34_SW USA_R34_NW USA_R50_NE USA_R50_SE USA_R50_SW USA_R50_NW USA_R64_NE USA_R64_SE USA_R64_SW USA_R64_NW USA_POCI USA_ROCI USA_RMW USA_EYE TOKYO_LAT TOKYO_LON TOKYO_GRADE TOKYO_WIND TOKYO_PRES TOKYO_R50_DIR TOKYO_R50_LONG TOKYO_R50_SHORT TOKYO_R30_DIR TOKYO_R30_LONG TOKYO_R30_SHORT TOKYO_LAND CMA_LAT CMA_LON CMA_CAT CMA_WIND CMA_PRES HKO_LAT HKO_LON HKO_CAT HKO_WIND HKO_PRES NEWDELHI_LAT NEWDELHI_LON NEWDELHI_GRADE NEWDELHI_WIND NEWDELHI_PRES NEWDELHI_CI NEWDELHI_DP NEWDELHI_POCI REUNION_LAT REUNION_LON REUNION_TYPE REUNION_WIND REUNION_PRES REUNION_TNUM REUNION_CI REUNION_RMW REUNION_R34_NE REUNION_R34_SE REUNION_R34_SW REUNION_R34_NW REUNION_R50_NE REUNION_R50_SE REUNION_R50_SW REUNION_R50_NW REUNION_R64_NE REUNION_R64_SE REUNION_R64_SW REUNION_R64_NW BOM_LAT BOM_LON BOM_TYPE BOM_WIND BOM_PRES BOM_TNUM BOM_CI BOM_RMW BOM_R34_NE BOM_R34_SE BOM_R34_SW BOM_R34_NW BOM_R50_NE BOM_R50_SE BOM_R50_SW BOM_R50_NW BOM_R64_NE BOM_R64_SE BOM_R64_SW BOM_R64_NW BOM_ROCI BOM_POCI BOM_EYE BOM_POS_METHOD BOM_PRES_METHOD NADI_LAT NADI_LON NADI_CAT NADI_WIND NADI_PRES WELLINGTON_LAT WELLINGTON_LON WELLINGTON_WIND WELLINGTON_PRES DS824_LAT DS824_LON DS824_STAGE DS824_WIND DS824_PRES TD9636_LAT TD9636_LON TD9636_STAGE TD9636_WIND TD9636_PRES TD9635_LAT TD9635_LON TD9635_WIND TD9635_PRES TD9635_ROCI NEUMANN_LAT NEUMANN_LON NEUMANN_CLASS NEUMANN_WIND NEUMANN_PRES MLC_LAT MLC_LON MLC_CLASS MLC_WIND MLC_PRES USA_GUST BOM_GUST BOM_GUST_PER REUNION_GUST REUNION_GUST_PER USA_SEAHGT USA_SEARAD_NE USA_SEARAD_SE USA_SEARAD_SW USA_SEARAD_NW STORM_SPEED STORM_DIR
1945310N07086 1945 74 NI BB NOT_NAMED 1945-11-05 18:00:00 TS 6.70000 86.4000 main 498 497 O________O____ jtwc_io IO111945 6.70000 86.4000 -1 6.70000 86.4000 TC 2 336
1945310N07086 1945 74 NI BB NOT_NAMED 1945-11-05 21:00:00 TS 6.80250 86.3575 main 497 486 P________P____ IO111945 6.80250 86.3575 -1 6.80250 86.3575 TC 2 333
1945310N07086 1945 74 NI BB NOT_NAMED 1945-11-06 00:00:00 TS 6.90000 86.3000 main 486 475 O________O____ jtwc_io IO111945 6.90000 86.3000 -1 6.90000 86.3000 TC 25 2 324
1945310N07086 1945 74 NI BB NOT_NAMED 1945-11-06 03:00:00 TS 6.99333 86.2133 main 475 464 P________PO___ IO111945 6.99250 86.2150 -1 6.99250 86.2150 TC 25 7.00000 86.2000 1 3 315
1945310N07086 1945 74 NI BB NOT_NAMED 1945-11-06 06:00:00 TS 7.10251 86.0931 main 464 453 O________OP___ jtwc_io IO111945 7.10000 86.1000 -1 7.10000 86.1000 TC 25 7.11254 86.0657 1 4 314
1945310N07086 1945 74 NI BB NOT_NAMED 1945-11-06 09:00:00 TS 7.24457 85.9459 main 442 432 P________PP___ IO111945 7.25001 85.9500 -1 7.25001 85.9500 TC 25 7.23005 85.9350 1 4 315
1945310N07086 1945 74 NI BB NOT_NAMED 1945-11-06 12:00:00 TS 7.38584 85.8040 main 432 421 O________OP___ jtwc_io IO111945 7.40000 85.8000 -1 7.40000 85.8000 TC 25 7.35753 85.8119 1 4 315
1945310N07086 1945 74 NI BB NOT_NAMED 1945-11-06 15:00:00 TS 7.49499 85.6950 main 423 413 P________PO___ IO111945 7.49249 85.6925 -1 7.49249 85.6925 TC 25 7.50000 85.7000 1 3 319
1945310N07086 1945 74 NI BB NOT_NAMED 1945-11-06 18:00:00 TS 7.61968 85.6003 main 413 405 O________OP___ jtwc_io IO111945 7.60000 85.6000 -1 7.60000 85.6000 TC 25 7.65903 85.6009 1 4 329
1945310N07086 1945 74 NI BB NOT_NAMED 1945-11-06 21:00:00 TS 7.80748 85.5025 main 407 398 P________PP___ IO111945 7.80000 85.5000 -1 7.80000 85.5000 TC 25 7.82245 85.5075 1 4 333
1945310N07086 1945 74 NI BB NOT_NAMED 1945-11-07 00:00:00 TS 7.99155 85.4034 main 399 389 O________OP___ jtwc_io IO111945 8.00000 85.4000 -1 8.00000 85.4000 TC 25 7.97465 85.4103 1 4 328
1945310N07086 1945 74 NI BB NOT_NAMED 1945-11-07 03:00:00 TS 8.11499 85.3050 main 389 380 P________PO___ IO111945 8.12249 85.3075 -1 8.12249 85.3075 TC 25 8.10000 85.3000 1 3 313
1945310N07086 1945 74 NI BB NOT_NAMED 1945-11-07 06:00:00 TS 8.19156 85.1895 main 380 369 O________OP___ jtwc_io IO111945 8.20000 85.2000 -1 8.20000 85.2000 TC 25 8.17468 85.1684 1 3 298
1945310N07086 1945 74 NI BB NOT_NAMED 1945-11-07 09:00:00 TS 8.24582 85.0508 main 369 350 P________PP___ IO111945 8.25749 85.0650 -1 8.25749 85.0650 TC 25 8.22249 85.0224 1 3 288
1945310N07086 1945 74 NI BB NOT_NAMED 1945-11-07 12:00:00 TS 8.28635 84.8884 main 350 329 O________OP___ jtwc_io IO111945 8.30000 84.9000 -1 8.30000 84.9000 TC 25 8.25905 84.8652 1 4 284
1945310N07086 1945 74 NI BB NOT_NAMED 1945-11-07 15:00:00 TS 8.33334 84.7000 main 329 310 P________PO___ IO111945 8.35001 84.7000 -1 8.35001 84.7000 TC 25 8.30000 84.7000 1 4 286
1945310N07086 1945 74 NI BB NOT_NAMED 1945-11-07 18:00:00 TS 8.39197 84.5121 main 310 300 O________OP___ jtwc_io IO111945 8.40000 84.5000 -1 8.40000 84.5000 TC 25 8.37592 84.5363 1 4 289
1945310N07086 1945 74 NI BB NOT_NAMED 1945-11-07 21:00:00 TS 8.45247 84.3550 main 303 283 P________PP___ IO111945 8.44998 84.3500 -1 8.44998 84.3500 TC 25 8.45747 84.3650 1 3 291
1945310N07086 1945 74 NI BB NOT_NAMED 1945-11-08 00:00:00 TS 8.51176 84.1954 main 283 267 O________OP___ jtwc_io IO111945 8.50000 84.2000 -1 8.50000 84.2000 TC 25 8.53528 84.1863 1 4 288
1945310N07086 1945 74 NI BB NOT_NAMED 1945-11-08 03:00:00 TS 8.56667 84.0050 main 267 247 P________PO___ IO111945 8.55000 84.0075 -1 8.55000 84.0075 TC 25 8.60000 84.0000 1 4 285
1945310N07086 1945 74 NI BB NOT_NAMED 1945-11-08 06:00:00 TS 8.61447 83.8037 main 247 233 O________OP___ jtwc_io IO111945 8.60000 83.8000 -1 8.60000 83.8000 TC 25 8.64341 83.8112 1 4 284
1945310N07086 1945 74 NI BB NOT_NAMED 1945-11-08 09:00:00 TS 8.66248 83.6050 main 233 213 P________PP___ IO111945 8.65749 83.6000 -1 8.65749 83.6000 TC 25 8.67246 83.6150 1 4 282
1945310N07086 1945 74 NI BB NOT_NAMED 1945-11-08 12:00:00 TS 8.69676 83.4037 main 213 192 O________OP___ jtwc_io IO111945 8.70000 83.4000 -1 8.70000 83.4000 TC 25 8.69028 83.4112 1 4 276
1945310N07086 1945 74 NI BB NOT_NAMED 1945-11-08 15:00:00 TS 8.70498 83.2050 main 192 172 P________PO___ IO111945 8.70748 83.2075 -1 8.70748 83.2075 TC 25 8.70000 83.2000 1 4 271
1945310N07086 1945 74 NI BB NOT_NAMED 1945-11-08 18:00:00 TS 8.70177 82.9926 main 172 153 O________OP___ jtwc_io IO111945 8.70000 83.0000 -1 8.70000 83.0000 TC 25 8.70444 82.9816 1 4 269
1945310N07086 1945 74 NI BB NOT_NAMED 1945-11-08 21:00:00 TS 8.70079 82.7589 main 153 125 P________PP___ IO111945 8.69754 82.7600 -1 8.69754 82.7600 TC 25 8.70512 82.7575 1 5 270
1945310N07086 1945 74 NI BB NOT_NAMED 1945-11-09 00:00:00 TS 8.70162 82.5148 main 125 104 O________OP___ jtwc_io IO111945 8.70000 82.5000 -1 8.70000 82.5000 TC 25 8.70323 82.5297 1 5 270
1945310N07086 1945 74 NI BB NOT_NAMED 1945-11-09 03:00:00 NR 8.70000 82.3000 main 104 __________O___ IO111945 -1 TC 8.70000 82.3000 1 4 270

IBTrACS Databaseについて

本データベースは、米国NOAAが公開する1842年以降の世界の熱帯低気圧のベストトラックデータアーカイブInternational Best Track Archive for Climate Stewardship (IBTrACS)を、ウェブで閲覧しやすい形式に変換したものです。

最終更新日:2021-12-08